createdAt,value
2019-01-03T00:00:54.723Z,47.20
2019-01-03T00:03:44.504Z,47.33
2019-01-03T00:06:33.797Z,46.88
2019-01-03T00:09:22.010Z,45.88
2019-01-03T00:12:09.725Z,46.28
2019-01-03T00:15:04.744Z,45.48
2019-01-03T00:17:53.928Z,45.00
2019-01-03T00:20:59.752Z,44.90
2019-01-03T00:23:49.948Z,43.05
2019-01-03T00:26:31.632Z,43.30
2019-01-03T00:29:26.905Z,42.25
2019-01-03T00:32:14.838Z,41.95
2019-01-03T00:35:02.586Z,40.35
2019-01-03T00:37:51.734Z,40.52
2019-01-03T00:40:45.176Z,41.23
2019-01-03T00:43:33.246Z,40.65
2019-01-03T00:46:17.000Z,39.00
2019-01-03T00:52:21.804Z,37.38
2019-01-03T00:55:26.068Z,37.70
2019-01-03T00:58:13.972Z,37.35
2019-01-03T01:01:12.379Z,34.98
2019-01-03T01:04:07.657Z,36.23
2019-01-03T01:07:10.662Z,35.33
2019-01-03T01:09:52.633Z,35.25
2019-01-03T01:12:40.356Z,34.63
2019-01-03T01:15:38.370Z,33.75
2019-01-03T01:18:33.790Z,32.93
2019-01-03T01:21:29.027Z,33.80
2019-01-03T01:24:30.123Z,34.80
2019-01-03T01:27:31.329Z,31.77
2019-01-03T01:30:23.471Z,31.73
2019-01-03T01:33:15.410Z,30.88
2019-01-03T01:35:56.313Z,30.60
2019-01-03T01:38:44.562Z,29.85
2019-01-03T01:41:39.761Z,30.72
2019-01-03T01:44:35.199Z,30.00
2019-01-03T01:47:36.319Z,30.00
2019-01-03T01:50:25.506Z,28.83
2019-01-03T01:53:13.270Z,28.30
2019-01-03T01:56:02.032Z,27.85
2019-01-03T01:59:01.764Z,27.42
2019-01-03T02:01:44.467Z,27.98
2019-01-03T02:04:31.310Z,26.48
2019-01-03T02:07:20.843Z,27.95
2019-01-03T02:10:08.350Z,25.72
2019-01-03T02:13:03.307Z,26.85
2019-01-03T02:15:52.768Z,25.10
2019-01-03T02:18:55.839Z,25.25
2019-01-03T02:22:03.531Z,24.82
2019-01-03T02:24:52.764Z,24.32
2019-01-03T02:27:40.457Z,23.42
2019-01-03T02:30:42.202Z,24.02
2019-01-03T02:33:30.606Z,23.65
2019-01-03T02:36:29.153Z,23.10
2019-01-03T02:39:21.324Z,22.93
2019-01-03T02:42:25.738Z,22.98
2019-01-03T02:45:21.210Z,22.75
2019-01-03T02:48:08.942Z,21.80
2019-01-03T02:50:58.065Z,21.50
2019-01-03T02:53:46.095Z,21.33
2019-01-03T02:56:30.500Z,21.02
2019-01-03T02:59:28.439Z,20.72
2019-01-03T03:02:16.196Z,20.10
2019-01-03T03:05:04.939Z,20.37
2019-01-03T03:07:49.513Z,19.65
2019-01-03T03:10:36.593Z,19.87
2019-01-03T03:13:18.220Z,18.12
2019-01-03T03:16:10.329Z,19.15
2019-01-03T03:19:02.320Z,18.42
2019-01-03T03:21:48.139Z,18.48
2019-01-03T03:24:36.233Z,17.40
2019-01-03T03:27:40.471Z,17.62
2019-01-03T03:30:41.534Z,16.67
2019-01-03T03:33:36.853Z,17.30
2019-01-03T03:36:34.987Z,17.25
2019-01-03T03:39:44.104Z,17.00
2019-01-03T03:42:31.899Z,16.32
2019-01-03T03:45:19.858Z,16.77
2019-01-03T03:48:21.073Z,16.17
2019-01-03T03:51:16.266Z,16.30
2019-01-03T03:54:05.450Z,14.90
2019-01-03T03:57:09.682Z,16.00
2019-01-03T03:59:58.807Z,15.83
2019-01-03T04:03:00.279Z,15.35
2019-01-03T04:05:48.152Z,15.13
2019-01-03T04:08:38.712Z,15.10
2019-01-03T04:11:27.621Z,15.53
2019-01-03T04:14:19.406Z,14.20
2019-01-03T04:17:16.893Z,14.65
2019-01-03T04:20:21.097Z,14.00
2019-01-03T04:23:09.063Z,13.90
2019-01-03T04:26:16.452Z,13.80
2019-01-03T04:29:04.396Z,13.28
2019-01-03T04:31:56.511Z,13.78
2019-01-03T04:34:50.771Z,13.53
2019-01-03T04:37:49.245Z,13.00
2019-01-03T04:40:47.276Z,12.07
2019-01-03T04:43:36.948Z,11.55
2019-01-03T04:46:38.387Z,11.18
2019-01-03T04:49:42.879Z,10.58
2019-01-03T04:52:30.753Z,10.82
2019-01-03T04:55:18.704Z,10.53
2019-01-03T04:58:07.765Z,9.70
2019-01-03T05:00:56.781Z,9.65
2019-01-03T05:03:44.558Z,10.13
2019-01-03T05:06:32.616Z,9.68
2019-01-03T05:09:20.308Z,9.18
2019-01-03T05:12:24.855Z,9.78
2019-01-03T05:15:19.743Z,9.90
2019-01-03T05:18:17.939Z,9.10
2019-01-03T05:21:10.126Z,8.85
2019-01-03T05:24:11.516Z,8.70
2019-01-03T05:27:12.754Z,9.13
2019-01-03T05:30:00.184Z,8.25
2019-01-03T05:32:53.133Z,8.45
2019-01-03T05:35:48.145Z,8.83
2019-01-03T05:38:55.613Z,8.38
2019-01-03T05:41:43.624Z,8.45
2019-01-03T05:44:38.645Z,7.78
2019-01-03T05:47:26.541Z,7.92
2019-01-03T05:50:30.827Z,7.85
2019-01-03T05:53:28.914Z,8.10
2019-01-03T05:56:21.141Z,8.03
2019-01-03T05:59:16.350Z,7.40
2019-01-03T06:02:17.610Z,7.40
2019-01-03T06:05:18.938Z,8.45
2019-01-03T06:08:06.975Z,9.15
2019-01-03T06:10:48.466Z,9.55
2019-01-03T06:13:36.251Z,11.57
2019-01-03T06:16:31.277Z,13.43
2019-01-03T06:19:32.727Z,13.70
2019-01-03T06:22:24.915Z,15.00
2019-01-03T06:25:13.160Z,15.08
2019-01-03T06:28:02.551Z,23.83
2019-01-03T06:31:07.122Z,26.60
2019-01-03T06:33:54.719Z,36.17
2019-01-03T06:36:43.900Z,40.52
2019-01-03T06:39:36.322Z,40.20
2019-01-03T06:42:25.461Z,37.63
2019-01-03T06:45:32.730Z,39.58
2019-01-03T06:48:28.849Z,38.40
2019-01-03T06:51:11.987Z,40.03
2019-01-03T06:54:01.098Z,41.53
2019-01-03T06:56:48.813Z,42.88
2019-01-03T06:59:36.624Z,44.13
2019-01-03T07:02:25.789Z,58.78
2019-01-03T07:05:17.949Z,55.67
2019-01-03T07:08:09.362Z,52.73
2019-01-03T07:11:04.301Z,57.27
2019-01-03T07:13:52.463Z,65.90
2019-01-03T07:16:41.566Z,57.35
2019-01-03T07:19:30.781Z,59.53
2019-01-03T07:22:19.869Z,58.60
2019-01-03T07:25:09.078Z,59.27
2019-01-03T07:27:57.303Z,57.20
2019-01-03T07:30:45.029Z,62.60
2019-01-03T07:33:46.491Z,57.40
2019-01-03T07:36:38.586Z,61.37
2019-01-03T07:39:29.260Z,65.97
2019-01-03T07:42:36.994Z,68.52
2019-01-03T07:45:32.171Z,60.60
2019-01-03T07:48:21.308Z,58.87
2019-01-03T07:51:16.463Z,56.92
2019-01-03T07:54:17.764Z,57.23
2019-01-03T07:57:05.721Z,58.05
2019-01-03T07:59:53.445Z,57.80
2019-01-03T08:02:51.375Z,57.95
2019-01-03T08:05:39.029Z,58.02
2019-01-03T08:08:40.430Z,56.95
2019-01-03T08:11:35.650Z,54.80
2019-01-03T08:14:23.736Z,55.00
2019-01-03T08:17:18.879Z,53.23
2019-01-03T08:20:06.644Z,53.13
2019-01-03T08:22:56.264Z,53.50
2019-01-03T08:25:54.646Z,53.55
2019-01-03T08:28:38.177Z,52.27
2019-01-03T08:31:25.903Z,50.00
2019-01-03T08:34:17.818Z,50.10
2019-01-03T08:37:22.093Z,49.30
2019-01-03T08:40:17.380Z,48.98
2019-01-03T08:43:05.087Z,47.05
2019-01-03T08:45:57.101Z,48.83
2019-01-03T08:48:52.299Z,45.63
2019-01-03T08:51:53.688Z,46.58
2019-01-03T08:54:49.052Z,47.30
2019-01-03T08:57:41.219Z,44.45
2019-01-03T09:00:30.359Z,44.08
2019-01-03T09:03:28.482Z,44.88
2019-01-03T09:06:16.213Z,42.95
2019-01-03T09:09:02.938Z,43.23
2019-01-03T09:11:54.977Z,42.23
2019-01-03T09:14:47.193Z,42.50
2019-01-03T09:17:48.562Z,41.23
2019-01-03T09:20:40.471Z,40.65
2019-01-03T09:23:36.991Z,41.05
2019-01-03T09:26:26.123Z,39.70
2019-01-03T09:29:14.064Z,39.67
2019-01-03T09:32:06.005Z,38.92
2019-01-03T09:34:57.956Z,38.73
2019-01-03T09:38:05.596Z,38.17
2019-01-03T09:40:53.554Z,36.75
2019-01-03T09:43:41.492Z,36.63
2019-01-03T09:46:11.723Z,37.13
2019-01-03T09:48:41.991Z,35.48
2019-01-03T09:51:12.210Z,36.13
2019-01-03T09:53:42.459Z,35.92
2019-01-03T09:56:12.710Z,34.23
2019-01-03T09:58:42.967Z,33.78
2019-01-03T10:01:13.291Z,33.20
2019-01-03T10:03:43.510Z,34.45
2019-01-03T10:06:13.857Z,32.13
2019-01-03T10:08:44.150Z,34.00
2019-01-03T10:11:14.423Z,33.90
2019-01-03T10:13:44.635Z,31.87
2019-01-03T10:16:14.868Z,30.82
2019-01-03T10:18:45.205Z,31.27
2019-01-03T10:21:16.318Z,30.62
2019-01-03T10:23:46.559Z,30.05
2019-01-03T10:26:16.782Z,31.00
2019-01-03T10:28:47.033Z,30.55
2019-01-03T10:31:17.426Z,29.45
2019-01-03T10:33:47.675Z,29.70
2019-01-03T10:36:24.140Z,28.77
2019-01-03T10:38:49.829Z,29.02
2019-01-03T10:41:20.079Z,29.02
2019-01-03T10:43:50.370Z,27.17
2019-01-03T10:46:20.713Z,27.58
2019-01-03T10:48:50.935Z,27.00
2019-01-03T10:51:21.183Z,27.30
2019-01-03T10:53:51.440Z,26.17
2019-01-03T10:56:21.676Z,24.95
2019-01-03T10:58:51.951Z,25.90
2019-01-03T11:01:22.174Z,25.37
2019-01-03T11:03:52.419Z,24.90
2019-01-03T11:06:22.744Z,24.47
2019-01-03T11:08:52.989Z,25.40
2019-01-03T11:11:23.228Z,24.75
2019-01-03T11:13:53.506Z,23.87
2019-01-03T11:16:23.727Z,23.45
2019-01-03T11:18:54.027Z,23.70
2019-01-03T11:21:25.143Z,23.22
2019-01-03T11:23:55.380Z,23.02
2019-01-03T11:26:28.034Z,22.35
2019-01-03T11:28:58.259Z,22.87
2019-01-03T11:31:28.859Z,22.37
2019-01-03T11:33:59.157Z,22.60
2019-01-03T11:36:29.390Z,21.80
2019-01-03T11:38:59.712Z,21.33
2019-01-03T11:41:30.020Z,20.97
2019-01-03T11:44:00.667Z,21.25
2019-01-03T11:46:30.880Z,21.12
2019-01-03T11:49:01.155Z,20.68
2019-01-03T11:51:31.367Z,19.32
2019-01-03T11:54:01.613Z,19.62
2019-01-03T11:56:31.855Z,19.57
2019-01-03T11:59:02.156Z,19.20
2019-01-03T12:01:32.424Z,20.30
2019-01-03T12:04:02.645Z,18.85
2019-01-03T12:06:32.940Z,18.90
2019-01-03T12:09:03.343Z,18.37
2019-01-03T12:11:34.674Z,18.75
2019-01-03T12:14:04.889Z,18.45
2019-01-03T12:16:35.144Z,18.20
2019-01-03T12:19:05.373Z,17.07
2019-01-03T12:21:35.616Z,17.20
2019-01-03T12:24:05.851Z,17.98
2019-01-03T12:26:36.529Z,17.42
2019-01-03T12:29:06.756Z,16.35
2019-01-03T12:31:37.038Z,16.37
2019-01-03T12:34:07.341Z,16.27
2019-01-03T12:36:37.559Z,16.07
2019-01-03T12:39:08.889Z,15.50
2019-01-03T12:41:39.114Z,15.65
2019-01-03T12:44:09.437Z,16.15
2019-01-03T12:46:39.695Z,15.85
2019-01-03T12:49:09.915Z,14.78
2019-01-03T12:51:40.196Z,14.73
2019-01-03T12:54:10.422Z,14.50
2019-01-03T12:56:40.948Z,14.30
2019-01-03T12:59:11.252Z,14.70
2019-01-03T13:01:41.847Z,13.62
2019-01-03T13:04:12.157Z,13.98
2019-01-03T13:06:42.413Z,12.98
2019-01-03T13:09:18.350Z,12.63
2019-01-03T13:11:49.078Z,12.90
2019-01-03T13:14:19.330Z,12.68
2019-01-03T13:16:49.716Z,12.58
2019-01-03T13:19:19.974Z,12.23
2019-01-03T13:21:50.270Z,11.78
2019-01-03T13:24:20.614Z,11.78
2019-01-03T13:26:51.946Z,11.60
2019-01-03T13:29:22.234Z,11.65
2019-01-03T13:31:52.480Z,11.57
2019-01-03T13:34:22.700Z,11.70
2019-01-03T13:36:52.947Z,10.30
2019-01-03T13:39:23.176Z,10.78
2019-01-03T13:41:53.843Z,11.08
2019-01-03T13:44:24.060Z,10.88
2019-01-03T13:46:54.307Z,10.30
2019-01-03T13:49:26.691Z,10.15
2019-01-03T13:51:56.927Z,10.35
2019-01-03T13:54:27.189Z,10.08
2019-01-03T13:56:57.490Z,10.23
2019-01-03T13:59:27.753Z,10.10
2019-01-03T14:01:58.005Z,9.30
2019-01-03T14:04:28.248Z,9.68
2019-01-03T14:06:59.194Z,10.15
2019-01-03T14:09:30.047Z,9.70
2019-01-03T14:12:00.471Z,9.43
2019-01-03T14:14:30.784Z,10.60
2019-01-03T14:17:01.067Z,9.58
2019-01-03T14:19:31.320Z,9.45
2019-01-03T14:22:02.377Z,10.25
2019-01-03T14:24:32.822Z,9.85
2019-01-03T14:27:03.240Z,9.20
2019-01-03T14:29:33.500Z,9.00
2019-01-03T14:32:16.673Z,9.30
2019-01-03T14:34:47.862Z,9.10
2019-01-03T14:37:18.198Z,9.08
2019-01-03T14:39:49.621Z,8.85
2019-01-03T14:42:21.568Z,8.95
2019-01-03T14:44:55.292Z,8.98
2019-01-03T14:47:26.105Z,8.75
2019-01-03T14:49:56.889Z,8.60
2019-01-03T14:52:28.201Z,8.08
2019-01-03T14:54:59.337Z,8.13
2019-01-03T14:57:30.250Z,8.23
2019-01-03T15:00:01.905Z,8.08
2019-01-03T15:02:32.642Z,8.23
2019-01-03T15:05:03.859Z,8.05
2019-01-03T15:07:35.974Z,8.08
2019-01-03T15:10:07.279Z,6.95
2019-01-03T15:12:38.584Z,7.75
2019-01-03T15:15:09.970Z,7.62
2019-01-03T15:17:41.915Z,8.00
2019-01-03T15:20:13.728Z,7.28
2019-01-03T15:22:45.106Z,7.78
2019-01-03T15:25:16.313Z,6.62
2019-01-03T15:27:47.282Z,6.72
2019-01-03T15:30:18.720Z,6.65
2019-01-03T15:32:50.041Z,6.60
2019-01-03T15:35:21.084Z,6.80
2019-01-03T15:37:52.029Z,7.03
2019-01-03T15:40:24.153Z,6.53
2019-01-03T15:42:55.214Z,6.72
2019-01-03T15:45:26.181Z,6.80
2019-01-03T15:47:57.454Z,6.62
2019-01-03T15:50:28.646Z,6.62
2019-01-03T15:52:59.761Z,6.80
2019-01-03T15:55:30.553Z,6.60
2019-01-03T15:58:01.471Z,6.53
2019-01-03T16:00:32.580Z,6.17
2019-01-03T16:03:03.414Z,6.20
2019-01-03T16:05:34.566Z,6.33
2019-01-03T16:08:05.757Z,6.20
2019-01-03T16:10:36.685Z,6.12
2019-01-03T16:13:07.954Z,6.85
2019-01-03T16:15:39.343Z,6.20
2019-01-03T16:18:10.307Z,5.75
2019-01-03T16:20:41.361Z,5.95
2019-01-03T16:23:12.474Z,5.55
2019-01-03T16:25:43.753Z,5.20
2019-01-03T16:28:14.883Z,5.55
2019-01-03T16:30:46.007Z,5.87
2019-01-03T16:33:16.924Z,5.37
2019-01-03T16:35:49.625Z,5.37
2019-01-03T16:38:20.357Z,4.75
2019-01-03T16:40:51.653Z,5.20
2019-01-03T16:43:23.224Z,5.47
2019-01-03T16:45:54.325Z,4.33
2019-01-03T16:48:25.534Z,4.87
2019-01-03T16:50:56.459Z,4.55
2019-01-03T16:53:27.502Z,4.62
2019-01-03T16:55:58.585Z,4.65
2019-01-03T16:58:29.547Z,4.80
2019-01-03T17:01:00.930Z,4.10
2019-01-03T17:03:31.665Z,4.25
2019-01-03T17:06:02.725Z,3.90
2019-01-03T17:08:33.731Z,3.85
2019-01-03T17:11:05.452Z,4.00
2019-01-03T17:13:36.781Z,4.00
2019-01-03T17:16:08.130Z,3.77
2019-01-03T17:18:39.295Z,4.25
2019-01-03T17:21:10.108Z,3.65
2019-01-03T17:23:41.064Z,3.87
2019-01-03T17:26:12.125Z,3.83
2019-01-03T17:28:43.932Z,4.05
2019-01-03T17:31:24.948Z,3.50
2019-01-03T17:33:56.781Z,3.83
2019-01-03T17:36:27.056Z,4.62
2019-01-03T17:38:57.264Z,4.80
2019-01-03T17:41:27.472Z,4.87
2019-01-03T17:43:57.713Z,4.25
2019-01-03T17:46:27.932Z,4.17
2019-01-03T17:48:58.209Z,4.50
2019-01-03T17:51:28.478Z,4.80
2019-01-03T17:53:58.713Z,4.60
2019-01-03T17:56:28.927Z,4.03
2019-01-03T17:58:59.133Z,4.17
2019-01-03T18:01:29.350Z,4.03
2019-01-03T18:03:59.589Z,3.92
2019-01-03T18:06:29.844Z,4.10
2019-01-03T18:09:00.062Z,4.15
2019-01-03T18:11:30.394Z,3.98
2019-01-03T18:14:00.589Z,3.83
2019-01-03T18:16:32.035Z,4.05
2019-01-03T18:19:02.265Z,3.90
2019-01-03T18:21:32.481Z,3.45
2019-01-03T18:24:02.710Z,3.90
2019-01-03T18:26:32.978Z,3.75
2019-01-03T18:29:03.213Z,3.70
2019-01-03T18:31:33.440Z,3.70
2019-01-03T18:34:03.745Z,3.50
2019-01-03T18:36:34.036Z,3.85
2019-01-03T18:39:05.092Z,3.55
2019-01-03T18:41:35.304Z,3.40
2019-01-03T18:44:06.449Z,3.80
2019-01-03T18:46:36.751Z,3.20
2019-01-03T18:49:06.953Z,3.58
2019-01-03T18:51:37.192Z,3.27
2019-01-03T18:54:07.404Z,3.40
2019-01-03T18:56:37.705Z,3.45
2019-01-03T18:59:07.946Z,3.42
2019-01-03T19:01:38.181Z,3.83
2019-01-03T19:04:08.714Z,3.40
2019-01-03T19:06:38.922Z,3.30
2019-01-03T19:09:09.236Z,3.00
2019-01-03T19:11:39.522Z,3.27
2019-01-03T19:14:09.761Z,3.08
2019-01-03T19:16:41.046Z,3.10
2019-01-03T19:19:11.290Z,2.90
2019-01-03T19:21:41.534Z,3.30
2019-01-03T19:24:11.747Z,2.95
2019-01-03T19:26:41.986Z,3.02
2019-01-03T19:29:12.203Z,3.30
2019-01-03T19:31:42.445Z,2.92
2019-01-03T19:34:12.760Z,2.90
2019-01-03T19:36:44.582Z,3.35
2019-01-03T19:39:14.806Z,3.12
2019-01-03T19:41:45.026Z,3.17
2019-01-03T19:44:15.311Z,3.50
2019-01-03T19:46:45.597Z,3.45
2019-01-03T19:49:15.820Z,3.22
2019-01-03T19:51:46.122Z,3.70
2019-01-03T19:54:19.134Z,3.65
2019-01-03T19:56:50.379Z,4.37
2019-01-03T19:59:20.726Z,8.38
2019-01-03T20:01:51.032Z,8.18
2019-01-03T20:04:21.449Z,8.53
2019-01-03T20:06:51.895Z,9.23
2019-01-03T20:09:22.347Z,8.45
2019-01-03T20:11:52.813Z,10.30
2019-01-03T20:14:23.190Z,8.83
2019-01-03T20:16:53.551Z,10.30
2019-01-03T20:19:24.010Z,13.85
2019-01-03T20:21:54.505Z,14.80
2019-01-03T20:24:25.071Z,14.13
2019-01-03T20:26:55.748Z,18.55
2019-01-03T20:29:26.186Z,17.45
2019-01-03T20:31:56.569Z,17.65
2019-01-03T20:34:27.013Z,20.17
2019-01-03T20:36:57.449Z,22.90
2019-01-03T20:39:27.716Z,23.47
2019-01-03T20:41:58.235Z,23.90
2019-01-03T20:44:28.648Z,21.73
2019-01-03T20:46:59.098Z,24.65
2019-01-03T20:49:29.470Z,23.98
2019-01-03T20:52:00.379Z,23.87
2019-01-03T20:54:35.364Z,23.30
2019-01-03T20:57:09.380Z,31.45
2019-01-03T20:59:40.178Z,42.90
2019-01-03T21:02:10.530Z,41.28
2019-01-03T21:04:40.905Z,39.65
2019-01-03T21:07:13.128Z,42.43
2019-01-03T21:09:43.555Z,45.90
2019-01-03T21:12:14.018Z,44.08
2019-01-03T21:14:44.387Z,48.08
2019-01-03T21:17:14.654Z,45.03
2019-01-03T21:19:44.994Z,46.85
2019-01-03T21:22:15.297Z,48.13
2019-01-03T21:24:45.642Z,46.95
2019-01-03T21:27:15.916Z,46.92
2019-01-03T21:29:46.283Z,47.48
2019-01-03T21:32:16.675Z,48.15
2019-01-03T21:34:47.034Z,47.08
2019-01-03T21:37:17.608Z,49.27
2019-01-03T21:39:47.964Z,47.65
2019-01-03T21:42:18.357Z,45.98
2019-01-03T21:44:48.639Z,46.08
2019-01-03T21:47:19.025Z,46.77
2019-01-03T21:49:50.473Z,46.13
2019-01-03T21:52:21.135Z,47.25
2019-01-03T21:54:51.560Z,47.53
2019-01-03T21:57:22.636Z,46.45
2019-01-03T21:59:52.949Z,46.25
2019-01-03T22:02:23.445Z,45.92
2019-01-03T22:04:53.872Z,45.92
2019-01-03T22:07:24.281Z,44.88
2019-01-03T22:09:54.768Z,45.23
2019-01-03T22:12:25.070Z,46.15
2019-01-03T22:14:55.305Z,43.80
2019-01-03T22:17:25.523Z,45.90
2019-01-03T22:19:55.769Z,44.03
2019-01-03T22:22:26.063Z,43.68
2019-01-03T22:24:56.331Z,44.80
2019-01-03T22:27:26.550Z,46.18
2019-01-03T22:29:56.795Z,47.10
2019-01-03T22:32:27.046Z,50.60
2019-01-03T22:34:58.348Z,50.73
2019-01-03T22:37:28.602Z,43.05
2019-01-03T22:39:58.844Z,43.38
2019-01-03T22:42:29.075Z,43.08
2019-01-03T22:44:59.451Z,45.60
2019-01-03T22:47:29.644Z,44.08
2019-01-03T22:49:59.849Z,44.88
2019-01-03T22:52:30.084Z,45.63
2019-01-03T22:55:00.321Z,43.68
2019-01-03T22:57:31.631Z,43.80
2019-01-03T23:00:01.947Z,44.13
2019-01-03T23:02:32.172Z,44.50
2019-01-03T23:05:02.946Z,44.15
2019-01-03T23:07:33.168Z,43.05
2019-01-03T23:10:03.393Z,45.35
2019-01-03T23:12:33.622Z,46.10
2019-01-03T23:15:03.845Z,52.55
2019-01-03T23:17:34.166Z,53.85
2019-01-03T23:20:04.400Z,49.83
2019-01-03T23:22:35.726Z,47.67
2019-01-03T23:25:05.943Z,49.05
2019-01-03T23:27:36.201Z,48.52
2019-01-03T23:30:06.775Z,51.45
2019-01-03T23:32:37.081Z,49.45
2019-01-03T23:35:07.359Z,51.92
2019-01-03T23:37:37.607Z,51.75
2019-01-03T23:40:07.940Z,59.18
2019-01-03T23:42:38.167Z,57.38
2019-01-03T23:45:19.579Z,57.03
2019-01-03T23:47:51.411Z,57.85
2019-01-03T23:50:24.550Z,55.52
2019-01-03T23:52:54.783Z,56.60
2019-01-03T23:55:25.353Z,54.98
2019-01-03T23:57:55.655Z,55.67
